Time;durP1;ratioP1;P1;durP2;ratioP2;P2;SDS_P1;SDS_P2;PMS_P1;PMS_P2;Temp;Humidity;BMP_temperature;BMP_pressure;BME280_temperature;BME280_humidity;BME280_pressure;Samples;Min_cycle;Max_cycle;Signal;HPM_P1;HPM_P2
2021/06/30 00:02:13;;;;;;;2.38;1.30;;;21.00;57.90;;;;;;5043335;28;20064;-84
2021/06/30 00:04:39;;;;;;;2.83;1.13;;;20.90;57.90;;;;;;5051493;28;20032;-82
2021/06/30 00:07:05;;;;;;;2.65;1.60;;;20.90;58.00;;;;;;5025035;28;20033;-82
2021/06/30 00:09:32;;;;;;;3.00;1.77;;;20.90;58.10;;;;;;5032754;28;20402;-82
2021/06/30 00:11:58;;;;;;;2.97;1.50;;;20.90;58.40;;;;;;5039597;28;20508;-82
2021/06/30 00:14:24;;;;;;;3.85;1.48;;;20.80;58.30;;;;;;5048824;28;20120;-83
2021/06/30 00:16:50;;;;;;;4.20;1.60;;;20.80;58.40;;;;;;5026699;28;20037;-84
2021/06/30 00:19:17;;;;;;;3.10;1.50;;;20.80;58.50;;;;;;5038819;28;20037;-84
2021/06/30 00:21:43;;;;;;;3.35;1.40;;;20.80;58.60;;;;;;5050185;28;20047;-84
2021/06/30 00:24:09;;;;;;;2.60;1.35;;;20.80;58.60;;;;;;5035387;28;20028;-83
2021/06/30 00:26:37;;;;;;;2.50;1.58;;;20.80;58.60;;;;;;5060170;28;20082;-84
2021/06/30 00:29:04;;;;;;;2.53;1.45;;;20.90;58.70;;;;;;5032374;28;20029;-83
2021/06/30 00:31:30;;;;;;;2.70;1.40;;;20.80;58.80;;;;;;5058587;28;20040;-84
2021/06/30 00:34:01;;;;;;;2.25;1.40;;;20.80;58.80;;;;;;5041198;28;20789;-83
2021/06/30 00:36:27;;;;;;;2.63;1.40;;;20.80;58.80;;;;;;5028771;28;20501;-84
2021/06/30 00:38:53;;;;;;;2.53;1.60;;;20.80;58.90;;;;;;5038201;28;20036;-83
2021/06/30 00:41:20;;;;;;;2.20;1.38;;;20.80;58.90;;;;;;5028462;28;20029;-84
2021/06/30 00:43:46;;;;;;;2.65;1.45;;;20.80;58.80;;;;;;5040418;28;20033;-83
2021/06/30 00:46:11;;;;;;;2.92;1.50;;;20.70;58.90;;;;;;5028965;28;20037;-84
2021/06/30 00:48:39;;;;;;;2.78;1.17;;;20.70;58.90;;;;;;5058472;28;20020;-83
2021/06/30 00:51:06;;;;;;;5.07;1.60;;;20.70;59.00;;;;;;5039541;28;21655;-84
2021/06/30 00:53:38;;;;;;;1.73;1.50;;;20.70;59.10;;;;;;5043728;28;20052;-84
2021/06/30 00:56:04;;;;;;;3.55;1.63;;;20.70;59.10;;;;;;5049977;28;20082;-84
2021/06/30 00:58:30;;;;;;;3.58;1.40;;;20.70;59.10;;;;;;5022789;28;20108;-84
2021/06/30 01:00:55;;;;;;;1.95;1.60;;;20.70;59.10;;;;;;5030921;28;20403;-84
2021/06/30 01:03:21;;;;;;;5.85;1.52;;;20.60;59.10;;;;;;5045739;28;20053;-84
2021/06/30 01:05:47;;;;;;;2.58;1.90;;;20.60;59.20;;;;;;5030123;28;20024;-84
2021/06/30 01:08:12;;;;;;;2.30;1.40;;;20.60;59.40;;;;;;5061029;28;20040;-84
2021/06/30 01:10:38;;;;;;;5.78;1.33;;;20.50;59.50;;;;;;5023729;28;20484;-84
2021/06/30 01:13:05;;;;;;;2.25;1.50;;;20.50;59.70;;;;;;5038976;28;20039;-84
2021/06/30 01:15:43;;;;;;;3.80;1.30;;;20.50;59.80;;;;;;5050336;28;20680;-84
2021/06/30 01:18:09;;;;;;;2.50;1.60;;;20.40;59.80;;;;;;5038172;28;20056;-84
2021/06/30 01:20:34;;;;;;;2.67;1.52;;;20.40;60.50;;;;;;5034674;28;20419;-84
2021/06/30 01:23:10;;;;;;;1.70;1.20;;;20.40;60.00;;;;;;5035735;28;20033;-84
2021/06/30 01:25:36;;;;;;;1.55;1.30;;;20.40;60.20;;;;;;5048112;28;20090;-83
2021/06/30 01:28:03;;;;;;;2.50;1.50;;;20.20;60.40;;;;;;5049232;28;20033;-84
2021/06/30 01:30:28;;;;;;;2.60;1.50;;;20.30;60.50;;;;;;5039258;28;20033;-84
2021/06/30 01:32:54;;;;;;;2.42;1.50;;;20.30;60.60;;;;;;5038968;28;20119;-84
2021/06/30 01:35:24;;;;;;;5.50;1.52;;;20.20;60.70;;;;;;5049061;28;20029;-84
2021/06/30 01:37:50;;;;;;;4.60;1.33;;;20.20;60.80;;;;;;5039204;28;20064;-84
2021/06/30 01:40:18;;;;;;;2.95;1.60;;;20.10;60.80;;;;;;5029149;28;20061;-83
2021/06/30 01:42:48;;;;;;;2.22;1.48;;;20.10;60.80;;;;;;5026713;28;21097;-83
2021/06/30 01:45:14;;;;;;;3.10;1.52;;;20.20;60.80;;;;;;5027831;28;20781;-83
2021/06/30 01:47:41;;;;;;;2.38;1.17;;;20.10;60.90;;;;;;5028438;28;20057;-84
2021/06/30 01:50:08;;;;;;;2.70;1.20;;;20.10;61.00;;;;;;5042786;28;20032;-83
2021/06/30 01:52:34;;;;;;;3.13;1.27;;;20.10;60.70;;;;;;5040276;28;20033;-83
2021/06/30 01:55:00;;;;;;;1.55;1.20;;;20.00;60.50;;;;;;5029897;28;20029;-83
2021/06/30 01:57:26;;;;;;;2.08;1.25;;;20.00;60.60;;;;;;5045822;28;20385;-84
2021/06/30 01:59:52;;;;;;;2.65;1.08;;;20.00;60.60;;;;;;5050371;28;20087;-83
2021/06/30 02:02:17;;;;;;;1.25;0.95;;;19.90;60.70;;;;;;5031210;28;20029;-84
2021/06/30 02:04:54;;;;;;;3.25;1.50;;;19.90;60.90;;;;;;5014698;28;20509;-84
2021/06/30 02:07:19;;;;;;;2.38;1.35;;;19.70;61.20;;;;;;5013659;28;20050;-82
2021/06/30 02:09:45;;;;;;;2.72;1.58;;;19.70;61.60;;;;;;5009305;28;20038;-82
2021/06/30 02:12:11;;;;;;;4.22;1.58;;;19.70;61.80;;;;;;5019813;28;20033;-82
2021/06/30 02:14:36;;;;;;;3.03;1.60;;;19.70;61.70;;;;;;5011128;28;20490;-82
2021/06/30 02:17:02;;;;;;;5.80;1.20;;;19.70;61.70;;;;;;5030916;28;20091;-82
2021/06/30 02:19:28;;;;;;;4.07;1.50;;;19.80;61.70;;;;;;5020103;28;20041;-83
2021/06/30 02:21:54;;;;;;;3.17;1.50;;;19.70;61.80;;;;;;5006033;28;20374;-83
2021/06/30 02:24:20;;;;;;;3.35;1.17;;;19.70;61.90;;;;;;5022821;28;20022;-83
2021/06/30 02:26:46;;;;;;;3.17;1.17;;;19.80;62.00;;;;;;5011088;28;20117;-82
2021/06/30 02:29:11;;;;;;;1.95;0.98;;;19.70;62.10;;;;;;5001828;28;20034;-82
2021/06/30 02:31:37;;;;;;;3.58;1.40;;;19.70;62.30;;;;;;5022244;28;20136;-82
2021/06/30 02:34:03;;;;;;;2.38;1.10;;;19.70;62.30;;;;;;5020401;28;20030;-82
2021/06/30 02:36:29;;;;;;;4.47;1.35;;;19.80;62.10;;;;;;5010424;28;20025;-83
2021/06/30 02:38:56;;;;;;;5.22;1.33;;;19.80;62.00;;;;;;5024056;28;20030;-83
2021/06/30 02:41:22;;;;;;;1.65;1.20;;;19.80;62.00;;;;;;5031251;28;20036;-83
2021/06/30 02:43:48;;;;;;;2.13;1.63;;;19.80;62.00;;;;;;5023244;28;20552;-82
2021/06/30 02:46:14;;;;;;;4.72;1.40;;;19.80;62.00;;;;;;5003065;28;20044;-82
2021/06/30 02:48:39;;;;;;;2.13;1.50;;;19.80;62.10;;;;;;5031559;28;20031;-82
2021/06/30 02:51:05;;;;;;;6.35;1.75;;;19.80;62.00;;;;;;5022764;28;20392;-83
2021/06/30 02:53:31;;;;;;;3.25;1.77;;;19.80;62.00;;;;;;5039101;28;20033;-82
2021/06/30 02:55:57;;;;;;;4.38;1.45;;;19.80;62.00;;;;;;5008267;28;20030;-82
2021/06/30 02:58:22;;;;;;;1.83;1.17;;;19.80;62.20;;;;;;5029851;28;20025;-82
2021/06/30 03:00:48;;;;;;;1.85;1.30;;;19.80;62.20;;;;;;5029063;28;20029;-83
2021/06/30 03:03:14;;;;;;;3.70;1.45;;;19.70;62.10;;;;;;5032681;28;20041;-83
2021/06/30 03:05:39;;;;;;;2.72;1.20;;;19.60;62.20;;;;;;4999397;28;20041;-84
2021/06/30 03:08:05;;;;;;;5.25;1.23;;;19.60;62.30;;;;;;5019833;28;20040;-84
2021/06/30 03:10:31;;;;;;;5.53;1.35;;;19.60;62.30;;;;;;5031886;28;20033;-83
2021/06/30 03:12:56;;;;;;;2.67;1.67;;;19.60;62.10;;;;;;5009969;28;20026;-84
2021/06/30 03:15:22;;;;;;;1.80;1.20;;;19.60;62.80;;;;;;5010734;28;20551;-84
2021/06/30 03:17:48;;;;;;;3.05;1.35;;;19.40;62.50;;;;;;5024260;28;20034;-83
2021/06/30 03:20:17;;;;;;;3.03;1.50;;;19.50;62.80;;;;;;5008134;28;20037;-84
2021/06/30 03:22:43;;;;;;;2.25;1.63;;;19.50;62.80;;;;;;5004165;28;20049;-83
2021/06/30 03:25:12;;;;;;;2.30;1.50;;;19.50;62.70;;;;;;5026482;28;20030;-83
2021/06/30 03:27:38;;;;;;;2.03;1.33;;;19.50;62.50;;;;;;5017877;28;20120;-83
2021/06/30 03:30:05;;;;;;;4.30;1.65;;;19.40;62.50;;;;;;5032614;28;20057;-84
2021/06/30 03:32:31;;;;;;;2.72;1.48;;;19.40;62.30;;;;;;5012052;28;20116;-84
2021/06/30 03:34:56;;;;;;;3.33;1.20;;;19.40;61.90;;;;;;5021368;28;20164;-84
2021/06/30 03:37:22;;;;;;;3.53;0.90;;;19.40;61.60;;;;;;5024455;28;20029;-84
2021/06/30 03:39:48;;;;;;;1.85;1.05;;;19.40;61.40;;;;;;5014890;28;20052;-84
2021/06/30 03:42:14;;;;;;;0.90;0.57;;;19.40;60.70;;;;;;5005109;28;20040;-84
2021/06/30 03:44:39;;;;;;;0.85;0.40;;;19.50;60.10;;;;;;5014276;28;20064;-84
2021/06/30 03:47:05;;;;;;;1.25;0.40;;;19.40;58.60;;;;;;5003636;28;20034;-84
2021/06/30 03:49:31;;;;;;;0.90;0.50;;;19.40;57.90;;;;;;5028576;28;20096;-84
2021/06/30 03:51:56;;;;;;;2.35;0.65;;;19.40;57.30;;;;;;5034819;28;20032;-84
2021/06/30 03:54:25;;;;;;;1.08;0.30;;;19.40;57.00;;;;;;5037497;28;20394;-84
2021/06/30 03:56:51;;;;;;;1.55;0.30;;;19.50;56.70;;;;;;5018129;28;20098;-84
2021/06/30 03:59:17;;;;;;;1.40;0.50;;;19.50;56.60;;;;;;5043805;28;20505;-84
2021/06/30 04:01:43;;;;;;;0.30;0.20;;;19.60;56.20;;;;;;5020992;28;20159;-84
2021/06/30 04:04:12;;;;;;;0.63;0.40;;;19.60;55.60;;;;;;5036023;28;20056;-84
2021/06/30 04:06:38;;;;;;;0.52;0.30;;;19.60;55.40;;;;;;5051463;28;20033;-83
2021/06/30 04:09:04;;;;;;;0.30;0.25;;;19.60;55.40;;;;;;5041191;28;20033;-84
2021/06/30 04:11:30;;;;;;;0.43;0.20;;;19.70;55.10;;;;;;5036626;28;20481;-84
2021/06/30 04:13:56;;;;;;;1.08;0.32;;;19.70;54.60;;;;;;5035673;28;20029;-84
2021/06/30 04:16:22;;;;;;;0.75;0.30;;;19.70;54.70;;;;;;5052318;28;20033;-83
2021/06/30 04:18:48;;;;;;;0.57;0.38;;;19.80;54.20;;;;;;5054089;28;20040;-84
2021/06/30 04:21:14;;;;;;;0.63;0.50;;;19.80;54.00;;;;;;5054147;28;20028;-84
2021/06/30 04:23:40;;;;;;;0.40;0.35;;;19.80;53.90;;;;;;5048099;28;20029;-83
2021/06/30 04:26:06;;;;;;;0.50;0.30;;;19.90;54.10;;;;;;5030381;28;20112;-83
2021/06/30 04:28:32;;;;;;;0.40;0.38;;;19.80;54.20;;;;;;5041563;28;20489;-83
2021/06/30 04:30:58;;;;;;;1.10;0.30;;;19.80;54.40;;;;;;5030848;28;20029;-84
2021/06/30 04:33:24;;;;;;;1.20;0.30;;;19.80;53.90;;;;;;5038306;28;20033;-83
2021/06/30 04:35:50;;;;;;;0.82;0.40;;;19.80;54.10;;;;;;5045442;28;20025;-83
2021/06/30 04:38:16;;;;;;;1.33;0.40;;;19.80;54.40;;;;;;5035857;28;20404;-83
2021/06/30 04:40:42;;;;;;;1.25;0.60;;;19.90;55.20;;;;;;5029659;28;20029;-83
2021/06/30 04:43:08;;;;;;;0.50;0.38;;;19.90;54.50;;;;;;5049809;28;20048;-83
2021/06/30 04:45:35;;;;;;;0.60;0.40;;;20.00;54.40;;;;;;5032655;28;20472;-83
2021/06/30 04:48:01;;;;;;;0.68;0.40;;;19.90;53.70;;;;;;5024066;28;20031;-83
2021/06/30 04:50:26;;;;;;;0.77;0.30;;;20.00;54.00;;;;;;5024245;28;20029;-83
2021/06/30 04:52:52;;;;;;;0.43;0.30;;;20.00;53.50;;;;;;5046058;28;20028;-83
2021/06/30 04:55:18;;;;;;;0.70;0.38;;;20.00;53.30;;;;;;5036524;28;20401;-83
2021/06/30 04:57:44;;;;;;;0.38;0.30;;;19.90;52.90;;;;;;5048288;28;20029;-83
2021/06/30 05:00:11;;;;;;;0.68;0.25;;;19.90;52.80;;;;;;5053029;28;20034;-83
2021/06/30 05:02:36;;;;;;;0.55;0.40;;;19.90;53.20;;;;;;5053808;28;20044;-83
2021/06/30 05:05:03;;;;;;;2.58;0.50;;;19.90;53.50;;;;;;5017877;28;20036;-83
2021/06/30 05:07:28;;;;;;;1.00;0.75;;;19.90;53.90;;;;;;5021767;28;20036;-83
2021/06/30 05:09:54;;;;;;;0.80;0.40;;;19.90;53.70;;;;;;5045096;28;20111;-83
2021/06/30 05:12:20;;;;;;;3.05;1.30;;;19.80;53.70;;;;;;5042046;28;20071;-82
2021/06/30 05:14:46;;;;;;;0.20;0.20;;;19.70;54.00;;;;;;5031712;28;20029;-82
2021/06/30 05:17:11;;;;;;;2.53;0.52;;;19.50;53.70;;;;;;5048311;28;20482;-82
2021/06/30 05:19:37;;;;;;;5.55;1.30;;;19.40;54.70;;;;;;5059228;28;20029;-83
2021/06/30 05:22:04;;;;;;;2.22;0.82;;;19.40;55.20;;;;;;5031572;28;20040;-82
2021/06/30 05:24:30;;;;;;;2.72;0.43;;;19.30;56.10;;;;;;5057935;28;20483;-82
2021/06/30 05:26:56;;;;;;;1.45;0.57;;;19.30;56.70;;;;;;5040477;28;20033;-82
2021/06/30 05:29:21;;;;;;;0.80;0.52;;;19.40;57.00;;;;;;5037712;28;20052;-82
2021/06/30 05:31:47;;;;;;;0.63;0.30;;;19.40;57.40;;;;;;5055796;28;20032;-82
2021/06/30 05:34:13;;;;;;;0.95;0.40;;;19.40;57.90;;;;;;5040335;28;20024;-82
2021/06/30 05:36:40;;;;;;;1.77;0.30;;;19.40;57.90;;;;;;5053409;28;20108;-82
2021/06/30 05:39:06;;;;;;;5.63;0.60;;;19.40;57.90;;;;;;5059248;28;20032;-82
2021/06/30 05:41:31;;;;;;;0.90;0.70;;;19.40;58.10;;;;;;5045031;28;20028;-82
2021/06/30 05:43:58;;;;;;;2.38;0.60;;;19.40;58.30;;;;;;5070294;28;20064;-82
2021/06/30 05:46:24;;;;;;;1.35;0.70;;;19.40;59.00;;;;;;5053609;28;20032;-82
2021/06/30 05:48:49;;;;;;;4.07;0.70;;;19.50;58.40;;;;;;5065249;28;20021;-82
2021/06/30 05:51:15;;;;;;;2.00;0.70;;;19.50;58.40;;;;;;5040044;28;20090;-82
2021/06/30 05:53:41;;;;;;;0.98;0.65;;;19.50;58.70;;;;;;5038216;28;20131;-82
2021/06/30 05:56:07;;;;;;;1.20;0.73;;;19.50;59.10;;;;;;5052891;28;20028;-82
2021/06/30 05:58:34;;;;;;;2.17;0.70;;;19.50;59.50;;;;;;5039578;28;20056;-82
2021/06/30 06:01:00;;;;;;;1.52;0.68;;;19.50;59.90;;;;;;5033588;28;20051;-82
2021/06/30 06:03:26;;;;;;;1.45;0.50;;;19.50;60.00;;;;;;5042393;28;20049;-82
2021/06/30 06:05:52;;;;;;;2.42;0.70;;;19.50;60.30;;;;;;5052357;28;20025;-82
2021/06/30 06:08:17;;;;;;;1.30;0.40;;;19.50;60.00;;;;;;5033760;28;20025;-82
2021/06/30 06:10:43;;;;;;;3.13;0.50;;;19.50;59.40;;;;;;5043122;28;20029;-82
2021/06/30 06:13:09;;;;;;;2.17;0.47;;;19.40;59.50;;;;;;5035653;28;20505;-82
2021/06/30 06:15:35;;;;;;;2.53;0.47;;;19.40;59.60;;;;;;5034691;28;20060;-82
2021/06/30 06:18:01;;;;;;;3.00;0.40;;;19.40;59.80;;;;;;5032245;28;20176;-82
2021/06/30 06:20:27;;;;;;;3.50;0.57;;;19.40;59.80;;;;;;5023331;28;20040;-82
2021/06/30 06:22:53;;;;;;;3.15;0.50;;;19.40;59.80;;;;;;5031120;28;20029;-82
2021/06/30 06:25:19;;;;;;;8.70;0.85;;;19.50;59.70;;;;;;5033377;28;20038;-82
2021/06/30 06:27:44;;;;;;;1.27;0.57;;;19.40;60.00;;;;;;5034118;28;20033;-82
2021/06/30 06:30:11;;;;;;;3.85;0.43;;;19.50;60.10;;;;;;5038191;28;20033;-81
2021/06/30 06:32:37;;;;;;;1.65;0.38;;;19.50;60.30;;;;;;5033471;28;20028;-82
2021/06/30 06:35:04;;;;;;;2.42;0.30;;;19.40;59.30;;;;;;5038805;28;20029;-82
2021/06/30 06:37:30;;;;;;;0.30;0.25;;;19.40;59.10;;;;;;5031849;28;20481;-82
2021/06/30 06:39:57;;;;;;;0.90;0.40;;;19.50;59.00;;;;;;5054708;28;20132;-82
2021/06/30 06:42:23;;;;;;;2.08;0.30;;;19.40;57.90;;;;;;5039760;28;20540;-82
2021/06/30 06:44:48;;;;;;;2.08;0.20;;;19.30;58.10;;;;;;5038947;28;20025;-83
2021/06/30 06:47:15;;;;;;;0.30;0.20;;;19.40;57.50;;;;;;5039303;28;20040;-84
2021/06/30 06:49:41;;;;;;;0.60;0.15;;;19.30;57.20;;;;;;5053647;28;20505;-83
2021/06/30 06:52:07;;;;;;;2.28;0.30;;;19.30;57.50;;;;;;5065480;28;20060;-83
2021/06/30 06:54:32;;;;;;;1.25;0.40;;;19.30;57.30;;;;;;5061306;28;20107;-84
2021/06/30 06:56:58;;;;;;;3.90;0.20;;;19.40;57.10;;;;;;5042076;28;20076;-83
2021/06/30 06:59:24;;;;;;;0.20;0.10;;;19.40;56.80;;;;;;5036871;28;20048;-84
2021/06/30 07:01:50;;;;;;;0.10;0.10;;;19.40;56.50;;;;;;5056512;28;20064;-83
2021/06/30 07:04:15;;;;;;;0.38;0.10;;;19.40;56.30;;;;;;5057872;28;20075;-84
2021/06/30 07:06:41;;;;;;;1.00;0.20;;;19.30;56.20;;;;;;5049243;28;20596;-83
2021/06/30 07:09:07;;;;;;;0.55;0.20;;;19.30;56.10;;;;;;5041681;28;20032;-84
2021/06/30 07:11:33;;;;;;;0.40;0.20;;;19.20;56.40;;;;;;5031287;28;20033;-83
2021/06/30 07:13:59;;;;;;;2.42;0.50;;;19.40;56.70;;;;;;5043297;28;20435;-83
2021/06/30 07:16:25;;;;;;;1.17;0.77;;;19.40;56.60;;;;;;5035312;28;20123;-84
2021/06/30 07:18:50;;;;;;;0.50;0.25;;;19.50;56.30;;;;;;5048102;28;20034;-84
2021/06/30 07:21:16;;;;;;;2.53;0.35;;;19.60;56.30;;;;;;5041145;28;20033;-84
2021/06/30 07:23:42;;;;;;;0.30;0.30;;;19.80;56.40;;;;;;5044662;28;20110;-84
2021/06/30 07:26:12;;;;;;;1.20;0.40;;;19.90;56.20;;;;;;5054260;28;20030;-83
2021/06/30 07:28:41;;;;;;;0.95;0.22;;;19.90;56.10;;;;;;5056949;28;20083;-84
2021/06/30 07:31:07;;;;;;;0.20;0.20;;;20.00;55.90;;;;;;5053056;28;20033;-84
2021/06/30 07:33:37;;;;;;;0.60;0.30;;;20.10;55.90;;;;;;5069357;28;20031;-84
2021/06/30 07:36:03;;;;;;;0.77;0.30;;;20.00;55.50;;;;;;5060130;28;20121;-84
2021/06/30 07:38:29;;;;;;;1.63;0.30;;;20.00;55.50;;;;;;5055100;28;20044;-84
2021/06/30 07:40:54;;;;;;;0.45;0.20;;;20.00;55.10;;;;;;5033169;28;20030;-83
2021/06/30 07:43:20;;;;;;;0.30;0.28;;;20.00;55.40;;;;;;5045453;28;20041;-84
2021/06/30 07:45:46;;;;;;;2.10;0.30;;;20.00;55.20;;;;;;5058773;28;20033;-82
2021/06/30 07:48:12;;;;;;;0.20;0.20;;;20.00;55.00;;;;;;5039026;28;20417;-82
2021/06/30 07:50:38;;;;;;;1.02;0.20;;;20.00;54.90;;;;;;5060842;28;20022;-82
2021/06/30 07:53:03;;;;;;;2.33;0.40;;;20.00;54.80;;;;;;5041677;28;20033;-82
2021/06/30 07:55:31;;;;;;;0.88;0.40;;;20.10;55.00;;;;;;5019992;28;20041;-84
2021/06/30 07:57:57;;;;;;;1.13;0.20;;;20.20;54.80;;;;;;5056965;28;20119;-84
2021/06/30 08:00:22;;;;;;;4.40;0.40;;;20.20;54.70;;;;;;5038105;28;20171;-84
2021/06/30 08:02:48;;;;;;;1.85;0.30;;;20.30;54.40;;;;;;5037862;28;20040;-84
2021/06/30 08:05:14;;;;;;;0.50;0.30;;;20.30;54.50;;;;;;5055944;28;20040;-84
2021/06/30 08:07:40;;;;;;;1.45;0.25;;;20.40;54.40;;;;;;5066914;28;20024;-84
2021/06/30 08:10:08;;;;;;;1.75;0.10;;;20.50;54.20;;;;;;5044025;28;20056;-84
2021/06/30 08:12:34;;;;;;;1.95;0.13;;;20.50;54.10;;;;;;5035615;28;20102;-84
2021/06/30 08:15:00;;;;;;;4.07;0.30;;;20.60;54.10;;;;;;5032678;28;20094;-84
2021/06/30 08:17:26;;;;;;;4.47;0.40;;;20.60;54.00;;;;;;5037729;28;20035;-84
2021/06/30 08:19:52;;;;;;;1.30;0.30;;;20.70;53.80;;;;;;5040332;28;20025;-84
2021/06/30 08:22:17;;;;;;;3.15;0.40;;;20.70;53.70;;;;;;5061826;28;20036;-83
2021/06/30 08:24:44;;;;;;;1.20;0.40;;;20.70;53.60;;;;;;5034910;28;20512;-83
2021/06/30 08:27:12;;;;;;;4.68;0.50;;;20.80;53.30;;;;;;5039839;28;20461;-83
2021/06/30 08:29:39;;;;;;;0.73;0.30;;;20.80;53.30;;;;;;5043346;28;20027;-84
2021/06/30 08:32:05;;;;;;;3.17;0.60;;;20.80;53.20;;;;;;5049420;28;20059;-84
2021/06/30 08:34:31;;;;;;;0.82;0.40;;;20.90;53.10;;;;;;5056798;28;20057;-83
2021/06/30 08:37:05;;;;;;;4.43;0.43;;;20.90;53.00;;;;;;5043746;28;20440;-84
2021/06/30 08:39:30;;;;;;;4.25;0.45;;;20.90;52.80;;;;;;5040324;28;20036;-83
2021/06/30 08:41:57;;;;;;;5.05;1.42;;;21.00;52.80;;;;;;5047389;28;20032;-84
2021/06/30 08:44:23;;;;;;;4.35;0.70;;;21.00;52.70;;;;;;5043472;28;20113;-83
2021/06/30 08:46:50;;;;;;;1.45;0.60;;;21.00;52.80;;;;;;5044908;28;20093;-84
2021/06/30 08:49:23;;;;;;;1.63;0.60;;;21.00;52.90;;;;;;5034200;28;20028;-84
2021/06/30 08:51:52;;;;;;;0.63;0.57;;;21.00;52.90;;;;;;5042612;28;20181;-84
2021/06/30 08:54:20;;;;;;;0.60;0.50;;;21.10;52.90;;;;;;5062699;28;20465;-84
2021/06/30 08:56:48;;;;;;;2.78;0.70;;;21.10;52.90;;;;;;5045897;28;20033;-84
2021/06/30 08:59:14;;;;;;;0.95;0.50;;;21.10;53.00;;;;;;5048167;28;20404;-84
2021/06/30 09:01:40;;;;;;;3.20;0.70;;;21.10;53.10;;;;;;5049299;28;20029;-84
2021/06/30 09:04:09;;;;;;;0.55;0.47;;;21.20;53.10;;;;;;5073138;28;20098;-84
2021/06/30 09:06:35;;;;;;;1.48;0.70;;;21.10;53.10;;;;;;5051429;28;20400;-83
2021/06/30 09:09:09;;;;;;;1.20;0.60;;;21.10;53.70;;;;;;5051690;28;20028;-84
2021/06/30 09:11:35;;;;;;;1.75;0.60;;;21.10;53.30;;;;;;5051469;28;20542;-84
2021/06/30 09:14:23;;;;;;;2.47;0.55;;;21.10;53.60;;;;;;5036953;28;20056;-83
2021/06/30 09:16:52;;;;;;;8.30;0.80;;;21.10;53.60;;;;;;5055232;28;20026;-83
2021/06/30 09:19:18;;;;;;;1.25;0.47;;;21.10;53.30;;;;;;5056128;28;20066;-84
2021/06/30 09:21:44;;;;;;;4.32;0.80;;;21.20;53.30;;;;;;5057033;28;20501;-84
2021/06/30 09:24:18;;;;;;;0.80;0.50;;;21.20;53.00;;;;;;5049979;28;20024;-84
2021/06/30 09:26:49;;;;;;;3.67;0.68;;;21.30;53.10;;;;;;5058232;28;20480;-84
2021/06/30 09:29:15;;;;;;;3.55;0.70;;;21.40;53.00;;;;;;5047182;28;20112;-84
2021/06/30 09:31:43;;;;;;;2.17;0.60;;;21.50;52.70;;;;;;5062988;28;20131;-84
2021/06/30 09:34:08;;;;;;;1.40;0.93;;;21.40;52.30;;;;;;5035238;28;20486;-84
2021/06/30 09:36:44;;;;;;;2.53;0.40;;;21.40;52.20;;;;;;5050211;28;20043;-84
2021/06/30 09:39:12;;;;;;;5.65;0.68;;;21.30;51.90;;;;;;5042824;28;20482;-83
2021/06/30 09:41:41;;;;;;;1.85;0.85;;;21.20;52.20;;;;;;5039077;28;20789;-84
2021/06/30 09:44:13;;;;;;;1.70;0.77;;;21.30;52.20;;;;;;5046245;28;20029;-84
2021/06/30 09:46:41;;;;;;;0.60;0.50;;;21.40;51.70;;;;;;5042008;28;20039;-84
2021/06/30 09:49:12;;;;;;;3.13;0.60;;;21.40;51.30;;;;;;5035979;28;20025;-82
2021/06/30 09:51:40;;;;;;;1.15;0.50;;;21.40;51.50;;;;;;5064053;28;20083;-84
2021/06/30 09:54:13;;;;;;;2.22;0.40;;;21.30;51.60;;;;;;5032100;28;20106;-84
2021/06/30 09:56:52;;;;;;;2.70;0.73;;;21.30;51.70;;;;;;5038409;28;20041;-82
2021/06/30 09:59:21;;;;;;;2.00;0.60;;;21.20;51.80;;;;;;5042784;28;20040;-84
2021/06/30 10:01:56;;;;;;;2.65;0.60;;;21.20;52.00;;;;;;5053597;28;20079;-84
2021/06/30 10:04:31;;;;;;;2.70;0.50;;;21.20;52.20;;;;;;5020761;28;20045;-85
2021/06/30 10:07:10;;;;;;;1.10;0.52;;;21.30;52.20;;;;;;5023753;28;20045;-84
2021/06/30 10:09:36;;;;;;;2.53;0.47;;;21.30;52.10;;;;;;5012246;28;20045;-82
2021/06/30 10:12:05;;;;;;;2.25;0.60;;;21.30;51.90;;;;;;5029151;28;20037;-82
2021/06/30 10:14:31;;;;;;;3.10;0.38;;;21.30;51.80;;;;;;5013292;28;20128;-84
2021/06/30 10:16:58;;;;;;;0.55;0.40;;;21.30;51.60;;;;;;5015128;28;20469;-84
2021/06/30 10:19:25;;;;;;;0.75;0.30;;;21.30;51.50;;;;;;5029238;28;20153;-84
2021/06/30 10:21:51;;;;;;;1.58;0.60;;;21.30;51.70;;;;;;5016347;28;20434;-82
2021/06/30 10:24:18;;;;;;;0.47;0.40;;;21.30;51.60;;;;;;5030479;28;20053;-82
2021/06/30 10:26:44;;;;;;;1.80;0.70;;;21.40;51.80;;;;;;5007380;28;20026;-82
2021/06/30 10:29:10;;;;;;;4.93;0.70;;;21.50;51.70;;;;;;5028831;28;20483;-82
2021/06/30 10:31:37;;;;;;;2.88;0.60;;;21.60;51.90;;;;;;5020986;28;20021;-82
2021/06/30 10:34:12;;;;;;;2.58;0.75;;;21.60;52.00;;;;;;5025680;28;20033;-82
2021/06/30 10:36:52;;;;;;;1.35;0.50;;;21.60;51.50;;;;;;5034887;28;20057;-82
2021/06/30 10:39:19;;;;;;;3.45;0.90;;;21.50;51.20;;;;;;5025405;28;20056;-82
2021/06/30 10:41:55;;;;;;;2.13;0.90;;;21.50;51.40;;;;;;5032859;28;20407;-82
2021/06/30 10:44:26;;;;;;;1.45;0.73;;;21.50;51.30;;;;;;5011685;28;20064;-82
2021/06/30 10:46:53;;;;;;;3.15;0.65;;;21.60;51.50;;;;;;5022316;28;20036;-82
2021/06/30 10:49:19;;;;;;;1.02;0.40;;;21.60;51.40;;;;;;5006253;28;20059;-83
2021/06/30 10:51:47;;;;;;;1.95;0.30;;;21.50;50.80;;;;;;5024051;28;20034;-83
2021/06/30 10:54:31;;;;;;;3.20;0.63;;;21.50;50.30;;;;;;5019701;28;20043;-83
2021/06/30 10:57:27;;;;;;;1.83;0.70;;;21.30;49.40;;;;;;5025313;28;20033;-83
2021/06/30 11:00:13;;;;;;;3.20;0.60;;;21.10;50.00;;;;;;5011106;28;20052;-83
2021/06/30 11:02:39;;;;;;;3.00;0.50;;;21.10;50.60;;;;;;4999339;28;20100;-83
2021/06/30 11:05:14;;;;;;;1.73;0.50;;;21.10;50.80;;;;;;5024261;28;20030;-83
2021/06/30 11:07:41;;;;;;;4.05;0.77;;;21.30;51.40;;;;;;5031258;28;20478;-83
2021/06/30 11:10:16;;;;;;;3.40;0.73;;;21.30;51.20;;;;;;5039914;28;20631;-83
2021/06/30 11:13:01;;;;;;;1.48;0.60;;;21.30;51.20;;;;;;5019383;28;20427;-83
2021/06/30 11:15:39;;;;;;;1.00;0.60;;;21.30;51.30;;;;;;5026666;28;20115;-83
2021/06/30 11:18:14;;;;;;;1.20;0.60;;;21.30;51.40;;;;;;5014066;28;20394;-83
2021/06/30 11:20:49;;;;;;;3.22;0.80;;;21.20;50.80;;;;;;5041157;28;20030;-83
2021/06/30 11:23:26;;;;;;;5.85;1.85;;;21.20;50.40;;;;;;5032345;28;20040;-84
2021/06/30 11:25:56;;;;;;;1.33;0.60;;;21.00;49.10;;;;;;5037899;28;20478;-82
2021/06/30 11:28:34;;;;;;;0.98;0.30;;;20.90;48.70;;;;;;5041510;28;20038;-82
2021/06/30 11:31:20;;;;;;;3.67;0.35;;;20.70;47.90;;;;;;5009612;28;20033;-81
2021/06/30 11:34:11;;;;;;;1.75;0.38;;;20.60;47.80;;;;;;5023177;28;20076;-81
2021/06/30 11:36:38;;;;;;;3.95;0.40;;;20.50;46.60;;;;;;5031041;28;20029;-81
2021/06/30 11:39:09;;;;;;;0.60;0.20;;;20.40;46.80;;;;;;5045704;28;20028;-81
2021/06/30 11:41:46;;;;;;;0.68;0.20;;;20.20;46.10;;;;;;5020140;28;20021;-82
2021/06/30 11:44:12;;;;;;;1.65;0.35;;;20.10;45.70;;;;;;5032152;28;20025;-82
2021/06/30 11:46:42;;;;;;;0.10;0.10;;;19.90;46.00;;;;;;5018288;28;20026;-82
2021/06/30 11:49:11;;;;;;;0.65;0.30;;;20.00;46.40;;;;;;5010427;28;20402;-82
2021/06/30 11:51:37;;;;;;;2.03;0.22;;;19.90;46.00;;;;;;5019594;28;20108;-82
2021/06/30 11:54:11;;;;;;;0.57;0.32;;;19.70;45.70;;;;;;5016548;28;20022;-82
2021/06/30 11:56:39;;;;;;;0.80;0.10;;;19.60;46.40;;;;;;5042867;28;20108;-82
2021/06/30 11:59:19;;;;;;;0.88;0.20;;;19.60;46.90;;;;;;5025267;28;20098;-83
2021/06/30 12:01:46;;;;;;;0.38;0.17;;;19.70;47.10;;;;;;5010156;28;20072;-83
2021/06/30 12:04:21;;;;;;;0.43;0.20;;;19.80;47.50;;;;;;5039943;28;20390;-83
2021/06/30 12:06:48;;;;;;;1.05;0.50;;;19.60;47.50;;;;;;5048104;28;20555;-83
2021/06/30 12:09:17;;;;;;;1.30;0.43;;;19.40;48.50;;;;;;5060824;28;20025;-83
2021/06/30 12:12:07;;;;;;;0.88;0.50;;;19.40;49.60;;;;;;5031972;28;20025;-83
2021/06/30 12:14:43;;;;;;;1.00;0.50;;;19.30;50.40;;;;;;5019909;28;20083;-84
2021/06/30 12:17:10;;;;;;;0.25;0.10;;;19.30;50.90;;;;;;5044223;28;20128;-84
2021/06/30 12:19:55;;;;;;;0.73;0.32;;;19.20;50.00;;;;;;5046938;28;20044;-84
2021/06/30 12:22:23;;;;;;;0.52;0.30;;;19.10;49.90;;;;;;5041810;28;20037;-84
2021/06/30 12:25:00;;;;;;;0.40;0.20;;;19.10;49.90;;;;;;5053179;28;20025;-84
2021/06/30 12:27:28;;;;;;;0.38;0.30;;;18.90;49.60;;;;;;5030275;28;20450;-84
2021/06/30 12:30:00;;;;;;;0.88;0.50;;;18.70;50.20;;;;;;5042775;28;20547;-84
2021/06/30 12:32:26;;;;;;;2.33;0.65;;;18.80;50.60;;;;;;5052844;28;20427;-84
2021/06/30 12:34:58;;;;;;;1.63;0.55;;;18.80;50.90;;;;;;5032375;28;20033;-84
2021/06/30 12:37:25;;;;;;;0.60;0.40;;;18.80;51.40;;;;;;5034395;28;20032;-84
2021/06/30 12:40:00;;;;;;;1.50;0.50;;;18.90;51.60;;;;;;5051688;28;20381;-84
2021/06/30 12:42:46;;;;;;;1.38;0.50;;;18.90;51.90;;;;;;5047746;28;20025;-84
2021/06/30 12:45:14;;;;;;;2.15;0.80;;;18.90;52.60;;;;;;5044707;28;20024;-84
2021/06/30 12:48:20;;;;;;;1.13;0.60;;;18.90;53.10;;;;;;5046230;28;20052;-84
2021/06/30 12:50:51;;;;;;;3.97;0.60;;;18.90;53.60;;;;;;5043347;28;20045;-84
2021/06/30 12:53:40;;;;;;;4.00;0.80;;;18.90;54.50;;;;;;5052999;28;20083;-84